Time;durP1;ratioP1;P1;durP2;ratioP2;P2;SDS_P1;SDS_P2;PMS_P1;PMS_P2;Temp;Humidity;BMP_temperature;BMP_pressure;BME280_temperature;BME280_humidity;BME280_pressure;Samples;Min_cycle;Max_cycle;Signal;HPM_P1;HPM_P2
2024/03/05 00:00:26;;;;;;;21.27;10.77;;;6.90;99.90;;;;;;2065591;28;20221;-72
2024/03/05 00:01:27;;;;;;;17.45;10.25;;;7.00;99.90;;;;;;2051087;28;20224;-73
2024/03/05 00:02:28;;;;;;;16.73;9.73;;;6.90;99.90;;;;;;2059531;28;20296;-72
2024/03/05 00:03:29;;;;;;;19.60;10.33;;;7.00;99.90;;;;;;2066848;28;20288;-73
2024/03/05 00:04:32;;;;;;;19.70;10.15;;;7.00;99.90;;;;;;2070545;28;20298;-73
2024/03/05 00:05:32;;;;;;;21.95;10.90;;;7.00;99.90;;;;;;2057809;28;20226;-73
2024/03/05 00:06:33;;;;;;;20.43;10.33;;;7.10;99.90;;;;;;2056959;28;20234;-73
2024/03/05 00:07:36;;;;;;;22.10;9.93;;;7.00;99.90;;;;;;2057825;28;20226;-73
2024/03/05 00:08:37;;;;;;;18.65;10.32;;;7.00;99.90;;;;;;2052064;28;20222;-73
2024/03/05 00:09:38;;;;;;;20.57;10.63;;;7.00;99.90;;;;;;2056295;28;20226;-72
2024/03/05 00:10:38;;;;;;;19.27;9.87;;;6.90;99.90;;;;;;2065434;28;20229;-73
2024/03/05 00:11:39;;;;;;;14.27;8.43;;;6.90;99.90;;;;;;2060163;28;20222;-72
2024/03/05 00:12:40;;;;;;;17.47;9.87;;;6.90;99.90;;;;;;2067873;28;20734;-72
2024/03/05 00:13:41;;;;;;;22.87;11.97;;;6.90;99.90;;;;;;2065982;28;20294;-73
2024/03/05 00:14:41;;;;;;;16.67;9.50;;;6.90;99.90;;;;;;2057397;28;20218;-73
2024/03/05 00:15:42;;;;;;;22.43;10.57;;;6.90;99.90;;;;;;2056298;28;20221;-72
2024/03/05 00:16:43;;;;;;;20.00;10.50;;;6.90;99.90;;;;;;2070142;28;20784;-72
2024/03/05 00:17:43;;;;;;;18.90;10.37;;;6.90;99.90;;;;;;2074362;28;20229;-72
2024/03/05 00:18:45;;;;;;;19.00;10.53;;;6.90;99.90;;;;;;2067965;28;20301;-71
2024/03/05 00:19:46;;;;;;;21.83;10.38;;;6.90;99.90;;;;;;2066068;28;20209;-72
2024/03/05 00:20:47;;;;;;;20.80;10.67;;;6.90;99.90;;;;;;2071389;28;20193;-72
2024/03/05 00:21:48;;;;;;;18.77;9.70;;;6.80;99.90;;;;;;2071451;28;20272;-73
2024/03/05 00:22:50;;;;;;;19.93;10.07;;;6.80;99.90;;;;;;2071508;28;20492;-73
2024/03/05 00:23:50;;;;;;;15.32;8.60;;;6.80;99.90;;;;;;2072316;28;20185;-73
2024/03/05 00:24:51;;;;;;;20.53;9.73;;;6.80;99.90;;;;;;2072774;28;20216;-73
2024/03/05 00:25:52;;;;;;;19.37;9.30;;;6.70;99.90;;;;;;2073339;28;20197;-73
2024/03/05 00:26:52;;;;;;;20.20;10.53;;;6.80;99.90;;;;;;2071487;28;20190;-73
2024/03/05 00:27:54;;;;;;;19.50;10.87;;;6.80;99.90;;;;;;2071900;28;20189;-73
2024/03/05 00:28:58;;;;;;;20.77;10.18;;;6.80;99.90;;;;;;2062797;28;20182;-73
2024/03/05 00:29:58;;;;;;;17.98;9.70;;;6.80;99.90;;;;;;2063462;28;20236;-73
2024/03/05 00:30:59;;;;;;;18.60;9.50;;;6.90;99.90;;;;;;2064723;28;20194;-71
2024/03/05 00:31:59;;;;;;;19.27;10.70;;;6.90;99.90;;;;;;2064879;28;20189;-73
2024/03/05 00:33:00;;;;;;;21.73;10.17;;;6.80;99.90;;;;;;2067773;28;20265;-73
2024/03/05 00:34:01;;;;;;;18.43;10.23;;;6.80;99.90;;;;;;2081891;28;20188;-73
2024/03/05 00:35:04;;;;;;;19.35;10.05;;;6.70;99.90;;;;;;2068778;28;20591;-73
2024/03/05 00:36:05;;;;;;;22.33;10.15;;;6.70;99.90;;;;;;2057574;28;20245;-73
2024/03/05 00:37:05;;;;;;;16.93;9.10;;;6.70;99.90;;;;;;2061847;28;20233;-73
2024/03/05 00:38:06;;;;;;;17.70;10.47;;;6.70;99.90;;;;;;2072672;28;20734;-73
2024/03/05 00:39:08;;;;;;;19.20;8.90;;;6.80;99.90;;;;;;2067904;28;20224;-73
2024/03/05 00:40:09;;;;;;;18.83;10.25;;;6.80;99.90;;;;;;2070324;28;20682;-71
2024/03/05 00:41:10;;;;;;;19.50;9.85;;;6.70;99.90;;;;;;2071757;28;20229;-73
2024/03/05 00:42:10;;;;;;;21.73;9.70;;;6.70;99.90;;;;;;2069848;28;20314;-73
2024/03/05 00:43:11;;;;;;;19.93;10.03;;;6.70;99.90;;;;;;2070877;28;20300;-74
2024/03/05 00:44:12;;;;;;;18.47;8.80;;;6.70;99.90;;;;;;2069255;28;20292;-73
2024/03/05 00:45:17;;;;;;;20.30;10.20;;;6.70;99.90;;;;;;2063767;28;20231;-73
2024/03/05 00:46:17;;;;;;;18.88;9.25;;;6.80;99.90;;;;;;2057987;28;20726;-73
2024/03/05 00:47:18;;;;;;;16.50;8.90;;;6.80;99.90;;;;;;2058224;28;20227;-73
2024/03/05 00:48:19;;;;;;;20.73;9.47;;;6.90;99.90;;;;;;2066136;28;20234;-73
2024/03/05 00:49:21;;;;;;;18.17;9.57;;;6.90;99.90;;;;;;2069786;28;20231;-73
2024/03/05 00:50:22;;;;;;;19.23;10.32;;;6.90;99.90;;;;;;2069953;28;20642;-73
2024/03/05 00:51:23;;;;;;;18.88;10.18;;;6.80;99.90;;;;;;2072211;28;20281;-73
2024/03/05 00:52:24;;;;;;;20.10;10.17;;;6.80;99.90;;;;;;2072792;28;20214;-73
2024/03/05 00:53:24;;;;;;;16.47;8.93;;;6.80;99.90;;;;;;2073094;28;20301;-73
2024/03/05 00:54:25;;;;;;;20.47;10.07;;;6.70;99.90;;;;;;2073171;28;20218;-73
2024/03/05 00:55:26;;;;;;;18.93;10.00;;;6.70;99.90;;;;;;2073426;28;20740;-74
2024/03/05 00:56:27;;;;;;;19.13;10.33;;;6.70;99.90;;;;;;2074297;28;20209;-74
2024/03/05 00:57:28;;;;;;;19.27;9.37;;;6.70;99.90;;;;;;2067216;28;20218;-74
2024/03/05 00:58:29;;;;;;;17.77;10.05;;;6.80;99.90;;;;;;2058725;28;20210;-72
2024/03/05 00:59:30;;;;;;;18.80;10.50;;;6.70;99.90;;;;;;2057502;28;20637;-74
2024/03/05 01:00:30;;;;;;;15.13;8.87;;;6.70;99.90;;;;;;2063966;28;20229;-73
2024/03/05 01:01:31;;;;;;;19.80;10.20;;;6.70;99.90;;;;;;2063285;28;20222;-73
2024/03/05 01:02:32;;;;;;;20.47;10.60;;;6.60;99.90;;;;;;2056495;28;20258;-74
2024/03/05 01:03:33;;;;;;;16.43;8.90;;;6.70;99.90;;;;;;2061245;28;20253;-71
2024/03/05 01:04:34;;;;;;;17.43;9.30;;;6.70;99.90;;;;;;2053917;28;20223;-71
2024/03/05 01:05:36;;;;;;;19.17;10.02;;;6.80;99.90;;;;;;2057667;28;20468;-72
2024/03/05 01:06:36;;;;;;;17.73;9.15;;;6.80;99.90;;;;;;2049981;28;20227;-72
2024/03/05 01:07:38;;;;;;;16.77;9.20;;;6.70;99.90;;;;;;2055940;28;20316;-72
2024/03/05 01:08:39;;;;;;;22.75;9.70;;;6.80;99.90;;;;;;2058722;28;20305;-72
2024/03/05 01:09:40;;;;;;;19.17;8.97;;;6.70;99.90;;;;;;2064140;28;20726;-72
2024/03/05 01:10:45;;;;;;;19.33;9.70;;;6.70;99.90;;;;;;2073520;28;20220;-72
2024/03/05 01:11:46;;;;;;;19.20;10.27;;;6.70;99.90;;;;;;2071959;28;20732;-72
2024/03/05 01:12:46;;;;;;;18.58;8.32;;;6.70;99.90;;;;;;2064986;28;20731;-73
2024/03/05 01:13:47;;;;;;;21.20;9.27;;;6.80;99.90;;;;;;2065712;28;20197;-73
2024/03/05 01:14:48;;;;;;;18.33;8.43;;;6.90;99.90;;;;;;2063119;28;20241;-72
2024/03/05 01:15:49;;;;;;;17.20;8.77;;;6.80;99.90;;;;;;2063544;28;20190;-73
2024/03/05 01:16:50;;;;;;;18.02;8.52;;;6.70;99.90;;;;;;2056387;28;20191;-73
2024/03/05 01:17:51;;;;;;;23.90;9.70;;;6.70;99.90;;;;;;2059299;28;20703;-72
2024/03/05 01:18:52;;;;;;;16.10;8.60;;;6.70;99.90;;;;;;2072542;28;20191;-72
2024/03/05 01:19:54;;;;;;;15.87;8.67;;;6.70;99.90;;;;;;2065162;28;20261;-73
2024/03/05 01:20:54;;;;;;;15.38;8.13;;;6.70;99.90;;;;;;2058803;28;20222;-73
2024/03/05 01:21:58;;;;;;;15.27;8.03;;;6.80;99.90;;;;;;2066245;28;20185;-73
2024/03/05 01:22:58;;;;;;;16.33;8.77;;;6.80;99.90;;;;;;2072165;28;20193;-73
2024/03/05 01:24:01;;;;;;;17.00;8.27;;;6.70;99.90;;;;;;2071144;28;20220;-74
2024/03/05 01:25:02;;;;;;;14.52;7.55;;;6.80;99.90;;;;;;2063981;28;20190;-74
2024/03/05 01:26:03;;;;;;;14.00;7.57;;;6.70;99.90;;;;;;2072660;28;20236;-73
2024/03/05 01:27:04;;;;;;;16.23;7.90;;;6.80;99.90;;;;;;2065188;28;20197;-73
2024/03/05 01:28:07;;;;;;;13.10;7.20;;;6.80;99.90;;;;;;2061796;28;20237;-73
2024/03/05 01:29:08;;;;;;;18.92;9.40;;;6.80;99.90;;;;;;2062064;28;20237;-73
2024/03/05 01:30:11;;;;;;;17.00;8.30;;;6.90;99.90;;;;;;2056048;28;20245;-73
2024/03/05 01:31:11;;;;;;;13.73;7.57;;;6.90;99.90;;;;;;2056828;28;20788;-72
2024/03/05 01:32:12;;;;;;;16.20;7.73;;;6.90;99.90;;;;;;2062922;28;20225;-72
2024/03/05 01:33:19;;;;;;;15.45;8.23;;;6.80;99.90;;;;;;2065845;28;20720;-72
2024/03/05 01:34:21;;;;;;;17.52;8.00;;;6.70;99.90;;;;;;2071505;28;20697;-72
2024/03/05 01:35:21;;;;;;;12.50;6.93;;;6.70;99.90;;;;;;2072771;28;20233;-73
2024/03/05 01:36:23;;;;;;;15.77;8.20;;;6.70;99.90;;;;;;2072408;28;20229;-72
2024/03/05 01:37:23;;;;;;;14.98;8.10;;;6.80;99.90;;;;;;2067093;28;20250;-72
2024/03/05 01:38:27;;;;;;;12.93;7.47;;;6.80;99.90;;;;;;2068243;28;20387;-73
2024/03/05 01:39:28;;;;;;;15.07;8.20;;;6.80;99.90;;;;;;2059049;28;20273;-73
2024/03/05 01:40:28;;;;;;;15.52;7.38;;;6.90;99.90;;;;;;2051500;28;20635;-73
2024/03/05 01:41:29;;;;;;;14.20;7.23;;;6.90;99.90;;;;;;2059601;28;20229;-72
2024/03/05 01:42:31;;;;;;;14.40;7.43;;;6.90;99.90;;;;;;2067250;28;20225;-73
2024/03/05 01:43:32;;;;;;;16.30;8.70;;;6.90;99.90;;;;;;2057278;28;20219;-73
2024/03/05 01:44:33;;;;;;;18.47;8.20;;;6.80;99.90;;;;;;2063979;28;20219;-73
2024/03/05 01:45:34;;;;;;;14.50;6.95;;;6.90;99.90;;;;;;2065247;28;20233;-72
2024/03/05 01:46:35;;;;;;;14.53;7.43;;;6.90;99.90;;;;;;2049819;28;20278;-73
2024/03/05 01:47:36;;;;;;;16.30;8.27;;;6.90;99.90;;;;;;2059173;28;20230;-73
2024/03/05 01:48:37;;;;;;;15.15;7.65;;;7.00;99.90;;;;;;2066553;28;20244;-72
2024/03/05 01:49:38;;;;;;;14.73;8.30;;;6.90;99.90;;;;;;2055963;28;20245;-73
2024/03/05 01:50:39;;;;;;;13.85;7.43;;;6.90;99.90;;;;;;2062645;28;20691;-72
2024/03/05 01:51:43;;;;;;;15.27;8.40;;;6.80;99.90;;;;;;2062468;28;20226;-72
2024/03/05 01:52:44;;;;;;;14.90;7.78;;;6.80;99.90;;;;;;2065532;28;20339;-72
2024/03/05 01:53:45;;;;;;;15.07;7.60;;;6.80;99.90;;;;;;2060525;28;20227;-72
2024/03/05 01:54:47;;;;;;;15.05;7.97;;;6.80;99.90;;;;;;2063404;28;20717;-72
2024/03/05 01:55:53;;;;;;;13.10;7.57;;;6.80;99.90;;;;;;2068759;28;20193;-75
2024/03/05 01:57:00;;;;;;;14.35;7.45;;;6.80;99.90;;;;;;2066533;28;20174;-73
2024/03/05 01:58:02;;;;;;;17.45;7.50;;;6.80;99.90;;;;;;2059818;28;20210;-72
2024/03/05 01:59:05;;;;;;;11.82;6.95;;;6.70;99.90;;;;;;2066357;28;20370;-72
2024/03/05 02:00:09;;;;;;;19.25;9.15;;;6.70;99.90;;;;;;2064283;28;20229;-72
2024/03/05 02:01:11;;;;;;;13.73;7.55;;;6.70;99.90;;;;;;2057149;28;20317;-74
2024/03/05 02:02:11;;;;;;;13.95;6.93;;;6.70;99.90;;;;;;2058309;28;20254;-72
2024/03/05 02:03:13;;;;;;;14.47;7.00;;;6.70;99.90;;;;;;2065041;28;20237;-72
2024/03/05 02:04:17;;;;;;;18.55;7.07;;;6.70;99.90;;;;;;2058119;28;20706;-73
2024/03/05 02:05:18;;;;;;;16.25;7.28;;;6.80;99.90;;;;;;2050669;28;20236;-73
2024/03/05 02:06:21;;;;;;;19.13;8.13;;;6.80;99.90;;;;;;2057808;28;20234;-73
2024/03/05 02:07:23;;;;;;;20.17;8.40;;;6.80;99.90;;;;;;2066431;28;20226;-73
2024/03/05 02:08:25;;;;;;;16.13;7.88;;;6.70;99.90;;;;;;2058191;28;20263;-73
2024/03/05 02:09:26;;;;;;;14.63;7.05;;;6.80;99.90;;;;;;2064566;28;20302;-73
2024/03/05 02:10:27;;;;;;;14.47;7.20;;;6.70;99.90;;;;;;2072979;28;20352;-73
2024/03/05 02:11:31;;;;;;;17.03;8.60;;;6.70;99.90;;;;;;2074049;28;20245;-74
2024/03/05 02:12:33;;;;;;;17.77;8.02;;;6.70;99.90;;;;;;2070499;28;20218;-73
2024/03/05 02:13:35;;;;;;;19.30;8.52;;;6.70;99.90;;;;;;2054493;28;20222;-73
2024/03/05 02:14:35;;;;;;;17.92;8.48;;;6.70;99.90;;;;;;2054490;28;20234;-73
2024/03/05 02:15:36;;;;;;;16.23;7.93;;;6.60;99.90;;;;;;2065098;28;20725;-73
2024/03/05 02:16:40;;;;;;;17.95;8.48;;;6.60;99.90;;;;;;2072281;28;20228;-73
2024/03/05 02:17:41;;;;;;;16.98;7.68;;;6.60;99.90;;;;;;2063989;28;20223;-73
2024/03/05 02:18:42;;;;;;;17.02;7.70;;;6.60;99.90;;;;;;2060941;28;20758;-74
2024/03/05 02:19:47;;;;;;;15.73;7.33;;;6.50;99.90;;;;;;2063438;28;20311;-73
2024/03/05 02:20:47;;;;;;;16.58;7.40;;;6.50;99.90;;;;;;2059077;28;20226;-73
2024/03/05 02:21:48;;;;;;;13.57;7.60;;;6.50;99.90;;;;;;2068111;28;20744;-72
2024/03/05 02:22:49;;;;;;;15.30;7.83;;;6.60;99.90;;;;;;2070568;28;20192;-73
2024/03/05 02:23:49;;;;;;;15.67;7.67;;;6.50;99.90;;;;;;2062696;28;20185;-73
2024/03/05 02:24:50;;;;;;;15.97;8.30;;;6.60;99.90;;;;;;2062844;28;20562;-72
2024/03/05 02:25:51;;;;;;;18.17;8.80;;;6.60;99.90;;;;;;2072462;28;20178;-72
2024/03/05 02:26:52;;;;;;;14.80;7.60;;;6.60;99.90;;;;;;2075415;28;20192;-72
2024/03/05 02:27:53;;;;;;;13.13;7.38;;;6.60;99.90;;;;;;2073699;28;20185;-73
2024/03/05 02:28:55;;;;;;;16.87;8.20;;;6.60;99.90;;;;;;2066171;28;20852;-73
2024/03/05 02:29:55;;;;;;;17.30;8.70;;;6.50;99.90;;;;;;2062843;28;20679;-72
2024/03/05 02:30:56;;;;;;;17.37;8.80;;;6.50;99.90;;;;;;2071727;28;20177;-72
2024/03/05 02:31:57;;;;;;;11.93;7.23;;;6.50;99.90;;;;;;2072517;28;20215;-72
2024/03/05 02:32:59;;;;;;;16.50;8.13;;;6.50;99.90;;;;;;2071677;28;20690;-73
2024/03/05 02:34:00;;;;;;;17.67;7.60;;;6.50;99.90;;;;;;2072873;28;20181;-73
2024/03/05 02:35:01;;;;;;;15.27;7.15;;;6.60;99.90;;;;;;2066285;28;20190;-73
2024/03/05 02:36:02;;;;;;;17.13;7.33;;;6.60;99.90;;;;;;2059280;28;20193;-73
2024/03/05 02:37:03;;;;;;;16.87;8.10;;;6.60;99.90;;;;;;2071557;28;20698;-73
2024/03/05 02:38:05;;;;;;;15.52;8.25;;;6.60;99.90;;;;;;2062623;28;20439;-73
2024/03/05 02:39:07;;;;;;;17.20;7.72;;;6.60;99.90;;;;;;2066732;28;20235;-73
2024/03/05 02:40:10;;;;;;;18.15;8.52;;;6.60;99.90;;;;;;2074685;28;20323;-73
2024/03/05 02:41:10;;;;;;;18.27;8.05;;;6.60;99.90;;;;;;2071437;28;20280;-73
2024/03/05 02:42:11;;;;;;;18.43;8.60;;;6.60;99.90;;;;;;2065060;28;20602;-73
2024/03/05 02:43:12;;;;;;;17.80;8.23;;;6.50;99.90;;;;;;2075015;28;20218;-71
2024/03/05 02:44:12;;;;;;;18.53;8.53;;;6.60;99.90;;;;;;2079395;28;20217;-71
2024/03/05 02:45:15;;;;;;;16.33;8.40;;;6.60;99.90;;;;;;2077827;28;20305;-71
2024/03/05 02:46:16;;;;;;;16.00;8.35;;;6.70;99.90;;;;;;2079199;28;20231;-71
2024/03/05 02:47:16;;;;;;;17.43;8.30;;;6.70;99.90;;;;;;2072302;28;20229;-71
2024/03/05 02:48:17;;;;;;;15.17;8.63;;;6.70;99.90;;;;;;2073822;28;20281;-71
2024/03/05 02:49:19;;;;;;;20.17;9.47;;;6.80;99.90;;;;;;2073880;28;20256;-71
2024/03/05 02:50:20;;;;;;;22.08;10.10;;;6.80;99.90;;;;;;2066804;28;20605;-71
2024/03/05 02:51:21;;;;;;;18.73;7.83;;;6.80;99.90;;;;;;2070575;28;20226;-71
2024/03/05 02:52:21;;;;;;;18.67;9.53;;;6.80;99.90;;;;;;2061153;28;20687;-73
2024/03/05 02:53:24;;;;;;;17.10;8.43;;;6.90;99.90;;;;;;2063854;28;20320;-71
2024/03/05 02:54:24;;;;;;;19.15;9.25;;;6.90;99.90;;;;;;2064578;28;20226;-73
2024/03/05 02:55:25;;;;;;;15.30;8.23;;;6.90;99.90;;;;;;2066391;28;20230;-71
2024/03/05 02:56:26;;;;;;;17.93;8.67;;;7.00;99.90;;;;;;2073701;28;20229;-71
2024/03/05 02:57:28;;;;;;;22.03;9.40;;;7.00;99.90;;;;;;2066303;28;20220;-71
2024/03/05 02:58:28;;;;;;;16.98;8.75;;;7.00;99.90;;;;;;2058600;28;20222;-71
2024/03/05 02:59:29;;;;;;;13.97;7.03;;;7.00;99.90;;;;;;2050806;28;20621;-74
2024/03/05 03:00:31;;;;;;;18.40;7.93;;;7.00;99.90;;;;;;2062150;28;20222;-73
2024/03/05 03:01:32;;;;;;;15.88;7.18;;;7.10;99.90;;;;;;2071210;28;20237;-73
2024/03/05 03:02:34;;;;;;;13.50;7.37;;;7.00;99.90;;;;;;2071689;28;20249;-71
2024/03/05 03:03:35;;;;;;;17.77;8.35;;;6.90;99.90;;;;;;2057960;28;20253;-72
2024/03/05 03:04:36;;;;;;;17.87;7.40;;;7.00;99.90;;;;;;2057700;28;20257;-72
2024/03/05 03:05:38;;;;;;;16.20;8.10;;;7.00;99.90;;;;;;2058115;28;20839;-72
2024/03/05 03:06:39;;;;;;;14.73;7.88;;;7.10;99.90;;;;;;2057331;28;20222;-72
2024/03/05 03:07:40;;;;;;;15.85;7.50;;;7.00;99.90;;;;;;2059641;28;20605;-72
2024/03/05 03:08:41;;;;;;;15.57;8.43;;;7.00;99.90;;;;;;2071539;28;20226;-72
2024/03/05 03:09:46;;;;;;;16.67;8.07;;;7.10;99.90;;;;;;2065241;28;20266;-72
2024/03/05 03:10:47;;;;;;;13.32;6.13;;;7.00;99.90;;;;;;2056943;28;20225;-72
2024/03/05 03:11:48;;;;;;;15.17;7.90;;;7.00;99.90;;;;;;2057102;28;20210;-72
2024/03/05 03:12:49;;;;;;;16.58;7.80;;;7.00;99.90;;;;;;2057510;28;20214;-74
2024/03/05 03:13:50;;;;;;;13.80;7.82;;;6.90;99.90;;;;;;2056606;28;20684;-73
2024/03/05 03:14:50;;;;;;;13.77;7.50;;;7.00;99.90;;;;;;2065980;28;20184;-74
2024/03/05 03:15:51;;;;;;;10.90;7.13;;;7.00;99.90;;;;;;2053723;28;20685;-72
2024/03/05 03:16:52;;;;;;;16.73;7.23;;;7.10;99.90;;;;;;2053380;28;20617;-72
2024/03/05 03:17:53;;;;;;;14.10;7.13;;;7.10;99.90;;;;;;2052847;28;20226;-72
2024/03/05 03:18:53;;;;;;;16.53;7.47;;;7.00;99.90;;;;;;2059477;28;20707;-72
2024/03/05 03:19:54;;;;;;;12.93;7.53;;;7.00;99.90;;;;;;2054167;28;20214;-72
2024/03/05 03:20:54;;;;;;;14.07;7.57;;;7.10;99.90;;;;;;2053526;28;20187;-72
2024/03/05 03:21:55;;;;;;;19.60;7.97;;;7.10;99.90;;;;;;2051260;28;20676;-72
2024/03/05 03:22:56;;;;;;;14.73;8.00;;;6.90;99.90;;;;;;2061173;28;20237;-72
2024/03/05 03:23:57;;;;;;;11.13;6.53;;;6.90;99.90;;;;;;2065010;28;20194;-72
2024/03/05 03:24:58;;;;;;;19.07;9.20;;;6.80;99.90;;;;;;2065578;28;20250;-73
2024/03/05 03:25:58;;;;;;;15.53;8.33;;;6.90;99.90;;;;;;2056676;28;20782;-71
2024/03/05 03:27:00;;;;;;;15.17;7.17;;;6.90;99.90;;;;;;2057436;28;20490;-72
2024/03/05 03:28:01;;;;;;;15.27;7.47;;;7.00;99.90;;;;;;2056307;28;20652;-72
2024/03/05 03:29:02;;;;;;;14.60;7.53;;;7.00;99.90;;;;;;2059382;28;20186;-72
2024/03/05 03:30:05;;;;;;;11.83;6.83;;;7.00;99.90;;;;;;2068857;28;20209;-72
2024/03/05 03:31:10;;;;;;;15.75;7.35;;;7.00;99.90;;;;;;2070127;28;20247;-72
2024/03/05 03:32:11;;;;;;;13.40;6.70;;;7.10;99.90;;;;;;2079480;28;20262;-72
2024/03/05 03:33:12;;;;;;;14.57;7.13;;;7.10;99.90;;;;;;2071149;28;20749;-73
2024/03/05 03:34:17;;;;;;;14.70;7.10;;;7.00;99.90;;;;;;2071455;28;20509;-73
2024/03/05 03:35:18;;;;;;;14.50;7.32;;;7.00;99.90;;;;;;2067779;28;20313;-71
2024/03/05 03:36:23;;;;;;;17.52;7.97;;;7.10;99.90;;;;;;2058008;28;20230;-73
2024/03/05 03:37:24;;;;;;;15.68;7.05;;;7.10;99.90;;;;;;2058532;28;20230;-73
2024/03/05 03:38:24;;;;;;;15.77;7.57;;;7.00;99.90;;;;;;2062919;28;20232;-73
2024/03/05 03:39:25;;;;;;;17.43;8.27;;;7.00;99.90;;;;;;2051335;28;20274;-73
2024/03/05 03:40:26;;;;;;;13.63;7.00;;;7.00;99.90;;;;;;2045021;28;20226;-72
2024/03/05 03:41:27;;;;;;;15.40;7.60;;;6.90;99.90;;;;;;2057118;28;20238;-73
2024/03/05 03:42:29;;;;;;;13.07;7.07;;;6.80;99.90;;;;;;2074681;28;20497;-72
2024/03/05 03:43:30;;;;;;;14.20;6.60;;;6.90;99.90;;;;;;2073668;28;20715;-73
2024/03/05 03:44:32;;;;;;;12.13;6.93;;;6.90;99.90;;;;;;2062060;28;20229;-73
2024/03/05 03:45:33;;;;;;;16.67;8.43;;;6.90;99.90;;;;;;2065006;28;20227;-73
2024/03/05 03:46:37;;;;;;;17.50;9.17;;;6.90;99.90;;;;;;2070292;28;20305;-73
2024/03/05 03:47:37;;;;;;;14.73;7.88;;;7.00;99.90;;;;;;2070871;28;20335;-72
2024/03/05 03:48:39;;;;;;;13.60;6.93;;;7.00;99.90;;;;;;2064064;28;21086;-73
2024/03/05 03:49:48;;;;;;;14.48;6.97;;;7.00;99.90;;;;;;2063640;28;20230;-73
2024/03/05 03:50:48;;;;;;;15.02;7.47;;;7.00;99.90;;;;;;2061381;28;20220;-72
2024/03/05 03:51:50;;;;;;;13.27;6.90;;;7.00;99.90;;;;;;2066990;28;20200;-73
2024/03/05 03:52:51;;;;;;;11.57;6.75;;;7.00;99.90;;;;;;2072586;28;20189;-72
2024/03/05 03:53:51;;;;;;;13.90;7.47;;;7.00;99.90;;;;;;2063687;28;20598;-73
2024/03/05 03:54:52;;;;;;;15.73;7.27;;;7.00;99.90;;;;;;2065608;28;20186;-72
2024/03/05 03:55:53;;;;;;;13.13;7.13;;;7.10;99.90;;;;;;2062548;28;20289;-72
2024/03/05 03:56:54;;;;;;;14.43;6.77;;;7.10;99.90;;;;;;2062778;28;20456;-72
2024/03/05 03:57:54;;;;;;;13.27;6.60;;;7.20;99.90;;;;;;2060763;28;20233;-72
2024/03/05 03:58:56;;;;;;;15.17;7.43;;;7.10;99.90;;;;;;2057274;28;20201;-72
2024/03/05 03:59:56;;;;;;;13.55;7.60;;;7.10;99.90;;;;;;2057737;28;20586;-72
2024/03/05 04:00:59;;;;;;;13.90;7.37;;;7.20;99.90;;;;;;2058442;28;20198;-72
2024/03/05 04:01:59;;;;;;;14.43;7.72;;;7.20;99.90;;;;;;2061522;28;20198;-72
2024/03/05 04:03:00;;;;;;;17.07;7.57;;;7.20;99.90;;;;;;2070613;28;20196;-72
2024/03/05 04:04:02;;;;;;;13.53;6.97;;;7.20;99.90;;;;;;2071783;28;20678;-74
2024/03/05 04:05:05;;;;;;;15.02;7.97;;;7.20;99.90;;;;;;2070557;28;20212;-72
2024/03/05 04:06:05;;;;;;;15.10;8.07;;;7.20;99.90;;;;;;2074004;28;20240;-72
2024/03/05 04:07:06;;;;;;;13.23;7.47;;;7.10;99.90;;;;;;2064908;28;20238;-72
2024/03/05 04:08:07;;;;;;;14.17;7.03;;;7.10;99.90;;;;;;2068940;28;20237;-73
2024/03/05 04:09:08;;;;;;;14.43;7.63;;;7.00;99.90;;;;;;2060764;28;20238;-72
2024/03/05 04:10:12;;;;;;;14.65;8.25;;;7.00;99.90;;;;;;2064718;28;20303;-73
2024/03/05 04:11:12;;;;;;;14.35;7.13;;;7.00;99.90;;;;;;2055980;28;20368;-73
2024/03/05 04:12:14;;;;;;;16.43;8.43;;;6.90;99.90;;;;;;2063511;28;20356;-73
2024/03/05 04:13:17;;;;;;;16.38;7.65;;;6.80;99.90;;;;;;2062986;28;20233;-73
2024/03/05 04:14:18;;;;;;;14.63;7.05;;;6.80;99.90;;;;;;2064875;28;20743;-73
2024/03/05 04:15:18;;;;;;;20.53;8.57;;;6.80;99.90;;;;;;2063902;28;20232;-73
2024/03/05 04:16:19;;;;;;;15.50;8.13;;;6.80;99.90;;;;;;2071577;28;20740;-75
2024/03/05 04:17:20;;;;;;;14.53;8.00;;;6.80;99.90;;;;;;2061345;28;20614;-73
2024/03/05 04:18:21;;;;;;;16.20;7.28;;;6.80;99.90;;;;;;2057114;28;20226;-73
2024/03/05 04:19:22;;;;;;;12.43;5.90;;;6.80;99.90;;;;;;2070625;28;20229;-73
2024/03/05 04:20:26;;;;;;;12.55;5.78;;;6.70;99.90;;;;;;2073084;28;20234;-73
2024/03/05 04:21:27;;;;;;;10.73;5.82;;;6.60;99.90;;;;;;2073552;28;20305;-73
2024/03/05 04:22:28;;;;;;;13.27;6.13;;;6.50;99.90;;;;;;2062516;28;20301;-73
2024/03/05 04:23:29;;;;;;;13.37;5.93;;;6.60;99.90;;;;;;2064761;28;20226;-72
2024/03/05 04:24:31;;;;;;;13.50;6.33;;;6.60;99.90;;;;;;2068918;28;20533;-73
2024/03/05 04:25:39;;;;;;;11.13;6.03;;;6.60;99.90;;;;;;2055441;28;20231;-73
2024/03/05 04:26:41;;;;;;;13.40;6.93;;;6.70;99.90;;;;;;2070923;28;20229;-72
2024/03/05 04:27:45;;;;;;;10.70;5.25;;;6.70;99.90;;;;;;2061919;28;20225;-72
2024/03/05 04:28:48;;;;;;;9.02;5.20;;;6.60;99.90;;;;;;2058524;28;20229;-72
2024/03/05 04:29:53;;;;;;;8.20;5.32;;;6.70;99.90;;;;;;2065365;28;20729;-72
2024/03/05 04:30:57;;;;;;;9.25;4.88;;;6.60;99.90;;;;;;2072716;28;20184;-72
2024/03/05 04:32:08;;;;;;;11.60;5.45;;;6.70;99.90;;;;;;2068913;28;20196;-72
2024/03/05 04:33:09;;;;;;;12.70;5.90;;;6.70;99.90;;;;;;2073211;28;20230;-72
2024/03/05 04:34:13;;;;;;;9.67;5.40;;;6.60;99.90;;;;;;2070346;28;20597;-72
2024/03/05 04:35:16;;;;;;;11.05;5.78;;;6.50;99.90;;;;;;2062840;28;20501;-72
2024/03/05 04:36:16;;;;;;;13.20;5.75;;;6.60;99.90;;;;;;2064053;28;20779;-72
2024/03/05 04:37:17;;;;;;;9.03;5.33;;;6.60;99.90;;;;;;2073339;28;20308;-72
2024/03/05 04:38:17;;;;;;;9.40;4.87;;;6.60;99.90;;;;;;2064986;28;20225;-73
2024/03/05 04:39:18;;;;;;;9.57;5.30;;;6.60;99.90;;;;;;2061656;28;20256;-72
2024/03/05 04:40:19;;;;;;;10.80;5.87;;;6.60;99.90;;;;;;2071014;28;20235;-72
2024/03/05 04:41:19;;;;;;;10.37;5.40;;;6.70;99.90;;;;;;2070274;28;20231;-72
2024/03/05 04:42:22;;;;;;;8.53;5.17;;;6.70;99.90;;;;;;2071198;28;20236;-71
2024/03/05 04:43:22;;;;;;;13.95;6.55;;;6.70;99.90;;;;;;2067664;28;20217;-72
2024/03/05 04:44:25;;;;;;;12.87;6.67;;;6.70;99.90;;;;;;2070618;28;20234;-74
2024/03/05 04:45:27;;;;;;;12.68;5.60;;;6.70;99.90;;;;;;2066037;28;20630;-73
2024/03/05 04:46:28;;;;;;;13.30;6.47;;;6.70;99.90;;;;;;2066319;28;20221;-73
2024/03/05 04:47:29;;;;;;;11.82;6.03;;;6.70;99.90;;;;;;2059119;28;20219;-72
2024/03/05 04:48:30;;;;;;;11.27;6.07;;;6.70;99.90;;;;;;2065080;28;20214;-73
2024/03/05 04:49:31;;;;;;;12.27;6.25;;;6.80;99.90;;;;;;2070733;28;20221;-72
2024/03/05 04:50:31;;;;;;;11.50;6.23;;;6.70;99.90;;;;;;2069171;28;20248;-72
2024/03/05 04:51:32;;;;;;;12.33;6.20;;;6.70;99.90;;;;;;2072050;28;20343;-73
2024/03/05 04:52:33;;;;;;;14.03;6.43;;;6.70;99.90;;;;;;2068478;28;20241;-72
2024/03/05 04:53:36;;;;;;;13.87;7.07;;;6.70;99.90;;;;;;2063371;28;20218;-72
2024/03/05 04:54:37;;;;;;;15.65;7.10;;;6.80;99.90;;;;;;2069277;28;20222;-72
2024/03/05 04:55:37;;;;;;;13.57;7.43;;;6.80;99.90;;;;;;2063737;28;20226;-75
2024/03/05 04:56:38;;;;;;;13.73;7.73;;;6.80;99.90;;;;;;2069513;28;20741;-73
2024/03/05 04:57:40;;;;;;;12.30;6.50;;;6.70;99.90;;;;;;2068276;28;20309;-73
2024/03/05 04:58:41;;;;;;;14.38;6.80;;;6.70;99.90;;;;;;2062403;28;20218;-72
2024/03/05 04:59:41;;;;;;;14.43;7.57;;;6.70;99.90;;;;;;2045918;28;20262;-72
2024/03/05 05:00:42;;;;;;;15.40;6.60;;;6.70;99.90;;;;;;2057920;28;20303;-72
2024/03/05 05:01:44;;;;;;;13.07;6.53;;;6.70;99.90;;;;;;2060910;28;20758;-72
2024/03/05 05:02:49;;;;;;;13.82;6.72;;;6.70;99.90;;;;;;2047748;28;20219;-72
2024/03/05 05:03:49;;;;;;;17.98;7.60;;;6.70;99.90;;;;;;2043619;28;20196;-72
2024/03/05 05:04:50;;;;;;;14.20;6.53;;;6.80;99.90;;;;;;2053307;28;20230;-72
2024/03/05 05:05:53;;;;;;;17.90;7.80;;;6.80;99.90;;;;;;2053302;28;20673;-72
2024/03/05 05:06:54;;;;;;;16.73;7.93;;;6.70;99.90;;;;;;2053960;28;20369;-72
2024/03/05 05:08:03;;;;;;;12.83;6.50;;;6.70;99.90;;;;;;2063231;28;20211;-72
2024/03/05 05:09:05;;;;;;;13.75;6.80;;;6.80;99.90;;;;;;2066942;28;20200;-72
2024/03/05 05:10:08;;;;;;;9.85;5.30;;;6.70;99.90;;;;;;2074205;28;20240;-72
2024/03/05 05:11:08;;;;;;;11.77;5.68;;;6.70;99.90;;;;;;2071003;28;20734;-72
2024/03/05 05:12:11;;;;;;;13.17;6.17;;;6.70;99.90;;;;;;2071368;28;20240;-72
2024/03/05 05:13:12;;;;;;;10.00;5.78;;;6.70;99.90;;;;;;2064058;28;20316;-71
2024/03/05 05:14:13;;;;;;;9.75;5.85;;;6.70;99.90;;;;;;2065856;28;20233;-72
2024/03/05 05:15:14;;;;;;;12.50;5.53;;;6.60;99.90;;;;;;2073292;28;20237;-73
2024/03/05 05:16:15;;;;;;;11.73;5.33;;;6.60;99.90;;;;;;2065492;28;20287;-73
2024/03/05 05:17:15;;;;;;;13.80;6.97;;;6.60;99.90;;;;;;2057876;28;20221;-72
2024/03/05 05:18:16;;;;;;;11.10;5.57;;;6.70;99.90;;;;;;2068093;28;20237;-72
2024/03/05 05:19:17;;;;;;;13.53;6.33;;;6.60;99.90;;;;;;2071310;28;20652;-72